Terminal Aerodrome Forecast
Issued by NWS Twin Cities, MN

Home | Current Version | Previous Version | Graphics & Text | Print | Product List | Glossary On
Versions: 1 2 3 4 5 6 7 8 9 10 11 12 13 14 15 16
820
FTUS43 KMPX 060802 AAA
TAFEAU
TAF AMD
KEAU 060802Z 0608/0706 18012KT 5SM -SHSN SCT008 OVC017
      TEMPO 0608/0612 2SM -SN BKN008
     FM061200 21010KT 6SM BR VCSH OVC020
     FM061600 24012G20KT P6SM OVC025
     FM062300 25015G24KT P6SM OVC035=

USA.gov is the U.S. government's official web portal to all federal, state and local government web resources and services.